sensor_id;sensor_type;location;lat;lon;timestamp;temperature;humidity
67893;DHT22;54688;52.376;16.744;2022-12-18T00:02:10;-4.6;76.9
67893;DHT22;54688;52.376;16.744;2022-12-18T00:05:13;-4.6;76.7
67893;DHT22;54688;52.376;16.744;2022-12-18T00:08:16;-4.6;76.7
67893;DHT22;54688;52.376;16.744;2022-12-18T00:11:19;-4.7;76.6
67893;DHT22;54688;52.376;16.744;2022-12-18T00:14:23;-4.7;76.6
67893;DHT22;54688;52.376;16.744;2022-12-18T00:17:25;-4.7;76.6
67893;DHT22;54688;52.376;16.744;2022-12-18T00:20:27;-4.8;76.5
67893;DHT22;54688;52.376;16.744;2022-12-18T00:23:30;-4.8;76.5
67893;DHT22;54688;52.376;16.744;2022-12-18T00:26:33;-4.9;76.5
67893;DHT22;54688;52.376;16.744;2022-12-18T00:29:40;-4.9;76.5
67893;DHT22;54688;52.376;16.744;2022-12-18T00:32:42;-4.9;76.5
67893;DHT22;54688;52.376;16.744;2022-12-18T00:35:44;-5;76.5
67893;DHT22;54688;52.376;16.744;2022-12-18T00:38:47;-5;76.5
67893;DHT22;54688;52.376;16.744;2022-12-18T00:41:50;-5;76.3
67893;DHT22;54688;52.376;16.744;2022-12-18T00:44:52;-5.1;76
67893;DHT22;54688;52.376;16.744;2022-12-18T00:47:54;-5.2;76.3
67893;DHT22;54688;52.376;16.744;2022-12-18T00:50:56;-5.3;76.7
67893;DHT22;54688;52.376;16.744;2022-12-18T00:53:58;-5.3;77
67893;DHT22;54688;52.376;16.744;2022-12-18T00:57:00;-5.3;77.2
67893;DHT22;54688;52.376;16.744;2022-12-18T01:00:05;-5.3;77.9
67893;DHT22;54688;52.376;16.744;2022-12-18T01:03:12;-5.3;77.3
67893;DHT22;54688;52.376;16.744;2022-12-18T01:06:16;-5.4;77.3
67893;DHT22;54688;52.376;16.744;2022-12-18T01:09:18;-5.4;77.4
67893;DHT22;54688;52.376;16.744;2022-12-18T01:12:20;-5.4;77.3
67893;DHT22;54688;52.376;16.744;2022-12-18T01:15:22;-5.4;77
67893;DHT22;54688;52.376;16.744;2022-12-18T01:18:25;-5.4;77.1
67893;DHT22;54688;52.376;16.744;2022-12-18T01:21:27;-5.4;77.1
67893;DHT22;54688;52.376;16.744;2022-12-18T01:24:30;-5.4;77.1
67893;DHT22;54688;52.376;16.744;2022-12-18T01:27:32;-5.4;77.2
67893;DHT22;54688;52.376;16.744;2022-12-18T01:30:35;-5.5;77.1
67893;DHT22;54688;52.376;16.744;2022-12-18T01:33:38;-5.4;77.2
67893;DHT22;54688;52.376;16.744;2022-12-18T01:36:40;-5.5;77
67893;DHT22;54688;52.376;16.744;2022-12-18T01:39:42;-5.5;77
67893;DHT22;54688;52.376;16.744;2022-12-18T01:42:45;-5.5;77
67893;DHT22;54688;52.376;16.744;2022-12-18T01:45:52;-5.6;77
67893;DHT22;54688;52.376;16.744;2022-12-18T01:48:55;-5.7;76.8
67893;DHT22;54688;52.376;16.744;2022-12-18T01:54:59;-5.7;77.2
67893;DHT22;54688;52.376;16.744;2022-12-18T01:58:02;-5.8;77
67893;DHT22;54688;52.376;16.744;2022-12-18T02:01:05;-5.8;77.1
67893;DHT22;54688;52.376;16.744;2022-12-18T02:04:24;-5.8;77.3
67893;DHT22;54688;52.376;16.744;2022-12-18T02:07:30;-5.9;77.2
67893;DHT22;54688;52.376;16.744;2022-12-18T02:10:41;-6;77.4
67893;DHT22;54688;52.376;16.744;2022-12-18T02:13:51;-6;78.7
67893;DHT22;54688;52.376;16.744;2022-12-18T02:17:03;-6;77.8
67893;DHT22;54688;52.376;16.744;2022-12-18T02:20:13;-6;77.7
67893;DHT22;54688;52.376;16.744;2022-12-18T02:23:23;-6;77.7
67893;DHT22;54688;52.376;16.744;2022-12-18T02:29:33;-6;77.8
67893;DHT22;54688;52.376;16.744;2022-12-18T02:32:40;-6;77.8
67893;DHT22;54688;52.376;16.744;2022-12-18T02:35:44;-6.1;77.8
67893;DHT22;54688;52.376;16.744;2022-12-18T02:38:48;-6.1;77.9
67893;DHT22;54688;52.376;16.744;2022-12-18T02:41:52;-6.1;78.1
67893;DHT22;54688;52.376;16.744;2022-12-18T02:47:54;-6.1;78.8
67893;DHT22;54688;52.376;16.744;2022-12-18T02:50:59;-6.1;78.7
67893;DHT22;54688;52.376;16.744;2022-12-18T02:54:10;-6;78.7
67893;DHT22;54688;52.376;16.744;2022-12-18T02:57:24;-6.1;78.5
67893;DHT22;54688;52.376;16.744;2022-12-18T03:00:37;-6.1;78.4
67893;DHT22;54688;52.376;16.744;2022-12-18T03:03:44;-6.1;78.5
67893;DHT22;54688;52.376;16.744;2022-12-18T03:06:51;-6.1;78.5
67893;DHT22;54688;52.376;16.744;2022-12-18T03:09:56;-6.1;78.5
67893;DHT22;54688;52.376;16.744;2022-12-18T03:13:00;-6.1;78.3
67893;DHT22;54688;52.376;16.744;2022-12-18T03:16:06;-6.1;78.2
67893;DHT22;54688;52.376;16.744;2022-12-18T03:19:13;-6.2;78.1
67893;DHT22;54688;52.376;16.744;2022-12-18T03:22:20;-6.2;78
67893;DHT22;54688;52.376;16.744;2022-12-18T03:25:23;-6.3;77.9
67893;DHT22;54688;52.376;16.744;2022-12-18T03:28:29;-6.4;78.4
67893;DHT22;54688;52.376;16.744;2022-12-18T03:31:37;-6.3;78.5
67893;DHT22;54688;52.376;16.744;2022-12-18T03:34:42;-6.3;78.6
67893;DHT22;54688;52.376;16.744;2022-12-18T03:37:49;-6.4;78.8
67893;DHT22;54688;52.376;16.744;2022-12-18T03:40:53;-6.3;79
67893;DHT22;54688;52.376;16.744;2022-12-18T03:47:03;-6.3;79.3
67893;DHT22;54688;52.376;16.744;2022-12-18T03:50:10;-6.3;79.3
67893;DHT22;54688;52.376;16.744;2022-12-18T03:53:18;-6.2;79.7
67893;DHT22;54688;52.376;16.744;2022-12-18T03:56:28;-6.2;79.3
67893;DHT22;54688;52.376;16.744;2022-12-18T04:02:31;-6.1;79.1
67893;DHT22;54688;52.376;16.744;2022-12-18T04:05:36;-6.1;79
67893;DHT22;54688;52.376;16.744;2022-12-18T04:08:39;-6.1;79.2
67893;DHT22;54688;52.376;16.744;2022-12-18T04:11:42;-6.1;79.3
67893;DHT22;54688;52.376;16.744;2022-12-18T04:14:45;-6.1;79.6
67893;DHT22;54688;52.376;16.744;2022-12-18T04:17:48;-6.1;79.8
67893;DHT22;54688;52.376;16.744;2022-12-18T04:20:51;-6.1;79.3
67893;DHT22;54688;52.376;16.744;2022-12-18T04:23:53;-6;79.1
67893;DHT22;54688;52.376;16.744;2022-12-18T04:26:55;-6;79.9
67893;DHT22;54688;52.376;16.744;2022-12-18T04:29:57;-6;80
67893;DHT22;54688;52.376;16.744;2022-12-18T04:33:00;-6;79.9
67893;DHT22;54688;52.376;16.744;2022-12-18T04:36:02;-6;80.1
67893;DHT22;54688;52.376;16.744;2022-12-18T04:42:03;-6;80.5
67893;DHT22;54688;52.376;16.744;2022-12-18T04:45:06;-5.9;80.5
67893;DHT22;54688;52.376;16.744;2022-12-18T04:48:09;-5.9;80.7
67893;DHT22;54688;52.376;16.744;2022-12-18T04:51:12;-5.8;80.6
67893;DHT22;54688;52.376;16.744;2022-12-18T04:54:14;-5.8;80.4
67893;DHT22;54688;52.376;16.744;2022-12-18T04:57:16;-5.8;80.6
67893;DHT22;54688;52.376;16.744;2022-12-18T05:00:18;-5.8;80.8
67893;DHT22;54688;52.376;16.744;2022-12-18T05:03:21;-5.8;80.8
67893;DHT22;54688;52.376;16.744;2022-12-18T05:06:23;-5.7;80.8
67893;DHT22;54688;52.376;16.744;2022-12-18T05:09:26;-5.6;81.1
67893;DHT22;54688;52.376;16.744;2022-12-18T05:12:28;-5.6;81.1
67893;DHT22;54688;52.376;16.744;2022-12-18T05:15:30;-5.6;80.3
67893;DHT22;54688;52.376;16.744;2022-12-18T05:18:34;-5.6;80.4
67893;DHT22;54688;52.376;16.744;2022-12-18T05:21:37;-5.5;80.5
67893;DHT22;54688;52.376;16.744;2022-12-18T05:24:39;-5.4;80.3
67893;DHT22;54688;52.376;16.744;2022-12-18T05:27:41;-5.5;80
67893;DHT22;54688;52.376;16.744;2022-12-18T05:30:46;-5.4;79.7
67893;DHT22;54688;52.376;16.744;2022-12-18T05:33:49;-5.5;78.8
67893;DHT22;54688;52.376;16.744;2022-12-18T05:36:51;-5.5;79.6
67893;DHT22;54688;52.376;16.744;2022-12-18T05:39:53;-5.5;79.5
67893;DHT22;54688;52.376;16.744;2022-12-18T05:42:56;-5.6;79.3
67893;DHT22;54688;52.376;16.744;2022-12-18T05:46:02;-5.6;79.4
67893;DHT22;54688;52.376;16.744;2022-12-18T05:49:05;-5.7;79.5
67893;DHT22;54688;52.376;16.744;2022-12-18T05:52:07;-5.8;79.8
67893;DHT22;54688;52.376;16.744;2022-12-18T05:55:09;-5.8;80
67893;DHT22;54688;52.376;16.744;2022-12-18T05:58:12;-5.8;80.1
67893;DHT22;54688;52.376;16.744;2022-12-18T06:01:17;-5.8;80.1
67893;DHT22;54688;52.376;16.744;2022-12-18T06:04:21;-5.8;80.2
67893;DHT22;54688;52.376;16.744;2022-12-18T06:07:23;-5.8;80.3
67893;DHT22;54688;52.376;16.744;2022-12-18T06:10:26;-5.8;80.2
67893;DHT22;54688;52.376;16.744;2022-12-18T06:13:28;-5.8;80.3
67893;DHT22;54688;52.376;16.744;2022-12-18T06:16:31;-5.8;80.2
67893;DHT22;54688;52.376;16.744;2022-12-18T06:19:34;-5.7;80
67893;DHT22;54688;52.376;16.744;2022-12-18T06:22:36;-5.8;79.7
67893;DHT22;54688;52.376;16.744;2022-12-18T06:25:39;-5.8;79.7
67893;DHT22;54688;52.376;16.744;2022-12-18T06:28:41;-5.8;80
67893;DHT22;54688;52.376;16.744;2022-12-18T06:31:44;-5.9;80
67893;DHT22;54688;52.376;16.744;2022-12-18T06:34:46;-5.9;80.2
67893;DHT22;54688;52.376;16.744;2022-12-18T06:37:49;-5.9;80.1
67893;DHT22;54688;52.376;16.744;2022-12-18T06:40:51;-5.9;80.1
67893;DHT22;54688;52.376;16.744;2022-12-18T06:43:53;-6;80.1
67893;DHT22;54688;52.376;16.744;2022-12-18T06:46:55;-6;80.3
67893;DHT22;54688;52.376;16.744;2022-12-18T06:49:57;-6;80.3
67893;DHT22;54688;52.376;16.744;2022-12-18T06:52:59;-6;79.6
67893;DHT22;54688;52.376;16.744;2022-12-18T06:56:01;-6;80.5
67893;DHT22;54688;52.376;16.744;2022-12-18T06:59:04;-6;80.2
67893;DHT22;54688;52.376;16.744;2022-12-18T07:02:10;-5.9;80.5
67893;DHT22;54688;52.376;16.744;2022-12-18T07:05:13;-5.9;80.4
67893;DHT22;54688;52.376;16.744;2022-12-18T07:08:15;-5.9;80.2
67893;DHT22;54688;52.376;16.744;2022-12-18T07:11:17;-5.9;80.2
67893;DHT22;54688;52.376;16.744;2022-12-18T07:14:20;-5.9;80.3
67893;DHT22;54688;52.376;16.744;2022-12-18T07:17:23;-5.9;80.4
67893;DHT22;54688;52.376;16.744;2022-12-18T07:23:25;-5.8;80.6
67893;DHT22;54688;52.376;16.744;2022-12-18T07:26:27;-5.8;80.4
67893;DHT22;54688;52.376;16.744;2022-12-18T07:29:30;-5.7;80.3
67893;DHT22;54688;52.376;16.744;2022-12-18T07:32:32;-5.7;80.4
67893;DHT22;54688;52.376;16.744;2022-12-18T07:35:36;-5.8;80.4
67893;DHT22;54688;52.376;16.744;2022-12-18T07:38:39;-5.7;80.4
67893;DHT22;54688;52.376;16.744;2022-12-18T07:41:41;-5.7;80.7
67893;DHT22;54688;52.376;16.744;2022-12-18T07:44:43;-5.6;80.8
67893;DHT22;54688;52.376;16.744;2022-12-18T07:47:45;-5.5;80.7
67893;DHT22;54688;52.376;16.744;2022-12-18T07:50:48;-5.5;81.2
67893;DHT22;54688;52.376;16.744;2022-12-18T07:53:50;-5.4;80.7
67893;DHT22;54688;52.376;16.744;2022-12-18T07:56:52;-5.4;80.4
67893;DHT22;54688;52.376;16.744;2022-12-18T07:59:55;-5.4;80.3
67893;DHT22;54688;52.376;16.744;2022-12-18T08:02:57;-5.3;80.2
67893;DHT22;54688;52.376;16.744;2022-12-18T08:05:59;-5.3;80.1
67893;DHT22;54688;52.376;16.744;2022-12-18T08:09:02;-5.3;80
67893;DHT22;54688;52.376;16.744;2022-12-18T08:12:05;-5.3;79.9
67893;DHT22;54688;52.376;16.744;2022-12-18T08:15:07;-5.3;79.8
67893;DHT22;54688;52.376;16.744;2022-12-18T08:18:10;-5.3;80
67893;DHT22;54688;52.376;16.744;2022-12-18T08:21:13;-5.2;80.4
67893;DHT22;54688;52.376;16.744;2022-12-18T08:24:17;-5.1;80.6
67893;DHT22;54688;52.376;16.744;2022-12-18T08:27:20;-5.1;80.2
67893;DHT22;54688;52.376;16.744;2022-12-18T08:30:23;-5;80.3
67893;DHT22;54688;52.376;16.744;2022-12-18T08:33:25;-4.9;80.2
67893;DHT22;54688;52.376;16.744;2022-12-18T08:36:28;-4.9;80.2
67893;DHT22;54688;52.376;16.744;2022-12-18T08:42:29;-4.9;79.3
67893;DHT22;54688;52.376;16.744;2022-12-18T08:45:32;-4.8;79.1
67893;DHT22;54688;52.376;16.744;2022-12-18T08:48:35;-4.8;78.6
67893;DHT22;54688;52.376;16.744;2022-12-18T08:51:38;-4.7;79.1
67893;DHT22;54688;52.376;16.744;2022-12-18T08:54:41;-4.8;78.6
67893;DHT22;54688;52.376;16.744;2022-12-18T08:57:44;-4.7;78.7
67893;DHT22;54688;52.376;16.744;2022-12-18T09:00:49;-4.7;78.8
67893;DHT22;54688;52.376;16.744;2022-12-18T09:03:51;-4.6;78.4
67893;DHT22;54688;52.376;16.744;2022-12-18T09:06:53;-4.6;78.6
67893;DHT22;54688;52.376;16.744;2022-12-18T09:09:56;-4.5;78.7
67893;DHT22;54688;52.376;16.744;2022-12-18T09:12:58;-4.5;78.8
67893;DHT22;54688;52.376;16.744;2022-12-18T09:16:00;-4.4;78.6
67893;DHT22;54688;52.376;16.744;2022-12-18T09:19:05;-4.3;78.5
67893;DHT22;54688;52.376;16.744;2022-12-18T09:22:08;-4.3;78
67893;DHT22;54688;52.376;16.744;2022-12-18T09:25:10;-4.2;78.1
67893;DHT22;54688;52.376;16.744;2022-12-18T09:28:12;-4.2;77.8
67893;DHT22;54688;52.376;16.744;2022-12-18T09:31:18;-4.1;78
67893;DHT22;54688;52.376;16.744;2022-12-18T09:34:23;-4;78.7
67893;DHT22;54688;52.376;16.744;2022-12-18T09:37:26;-4;77.6
67893;DHT22;54688;52.376;16.744;2022-12-18T09:43:28;-3.9;77.2
67893;DHT22;54688;52.376;16.744;2022-12-18T09:46:36;-3.8;77.1
67893;DHT22;54688;52.376;16.744;2022-12-18T09:52:41;-3.7;76.7
67893;DHT22;54688;52.376;16.744;2022-12-18T09:55:47;-3.7;76.7
67893;DHT22;54688;52.376;16.744;2022-12-18T09:58:52;-3.7;76.4
67893;DHT22;54688;52.376;16.744;2022-12-18T10:01:59;-3.6;76.6
67893;DHT22;54688;52.376;16.744;2022-12-18T10:05:03;-3.6;75.9
67893;DHT22;54688;52.376;16.744;2022-12-18T10:08:08;-3.6;75.8
67893;DHT22;54688;52.376;16.744;2022-12-18T10:11:21;-3.6;76
67893;DHT22;54688;52.376;16.744;2022-12-18T10:14:40;-3.5;75.9
67893;DHT22;54688;52.376;16.744;2022-12-18T10:23:56;-3.3;75.1
67893;DHT22;54688;52.376;16.744;2022-12-18T10:30:08;-3.2;75.2
67893;DHT22;54688;52.376;16.744;2022-12-18T10:33:17;-3.2;74.9
67893;DHT22;54688;52.376;16.744;2022-12-18T10:36:22;-3.1;74.5
67893;DHT22;54688;52.376;16.744;2022-12-18T10:39:25;-3.1;74.5
67893;DHT22;54688;52.376;16.744;2022-12-18T10:42:27;-3.1;73.8
67893;DHT22;54688;52.376;16.744;2022-12-18T10:45:29;-3.1;74.6
67893;DHT22;54688;52.376;16.744;2022-12-18T10:48:31;-3;73.6
67893;DHT22;54688;52.376;16.744;2022-12-18T10:51:37;-3;73.7
67893;DHT22;54688;52.376;16.744;2022-12-18T10:54:39;-3;73.7
67893;DHT22;54688;52.376;16.744;2022-12-18T10:57:41;-3;73.8
67893;DHT22;54688;52.376;16.744;2022-12-18T11:00:44;-3;74.2
67893;DHT22;54688;52.376;16.744;2022-12-18T11:03:46;-3;73.1
67893;DHT22;54688;52.376;16.744;2022-12-18T11:07:02;-3;73.3
67893;DHT22;54688;52.376;16.744;2022-12-18T11:10:15;-3;73.7
67893;DHT22;54688;52.376;16.744;2022-12-18T11:13:19;-3;73.7
67893;DHT22;54688;52.376;16.744;2022-12-18T11:16:24;-3;73.4
67893;DHT22;54688;52.376;16.744;2022-12-18T11:19:30;-3;73.3
67893;DHT22;54688;52.376;16.744;2022-12-18T11:25:34;-3;73.5
67893;DHT22;54688;52.376;16.744;2022-12-18T11:28:37;-2.9;73.6
67893;DHT22;54688;52.376;16.744;2022-12-18T11:31:41;-2.9;73.8
67893;DHT22;54688;52.376;16.744;2022-12-18T11:34:44;-2.9;73.7
67893;DHT22;54688;52.376;16.744;2022-12-18T11:37:51;-2.8;73.9
67893;DHT22;54688;52.376;16.744;2022-12-18T11:40:58;-2.7;73.6
67893;DHT22;54688;52.376;16.744;2022-12-18T11:44:03;-2.6;73.3
67893;DHT22;54688;52.376;16.744;2022-12-18T11:47:13;-2.6;72.8
67893;DHT22;54688;52.376;16.744;2022-12-18T11:50:23;-2.6;72.7
67893;DHT22;54688;52.376;16.744;2022-12-18T11:53:27;-2.6;72.9
67893;DHT22;54688;52.376;16.744;2022-12-18T11:56:32;-2.5;73
67893;DHT22;54688;52.376;16.744;2022-12-18T11:59:38;-2.4;72.9
67893;DHT22;54688;52.376;16.744;2022-12-18T12:02:58;-2.4;71.4
67893;DHT22;54688;52.376;16.744;2022-12-18T12:06:15;-2.4;71.4
67893;DHT22;54688;52.376;16.744;2022-12-18T12:09:25;-2.4;70.2
67893;DHT22;54688;52.376;16.744;2022-12-18T12:12:35;-2.4;71.2
67893;DHT22;54688;52.376;16.744;2022-12-18T12:18:51;-2.5;71.1
67893;DHT22;54688;52.376;16.744;2022-12-18T12:22:04;-2.5;71.5
67893;DHT22;54688;52.376;16.744;2022-12-18T12:25:16;-2.5;71.7
67893;DHT22;54688;52.376;16.744;2022-12-18T12:28:32;-2.5;71.6
67893;DHT22;54688;52.376;16.744;2022-12-18T12:31:53;-2.5;71.3
67893;DHT22;54688;52.376;16.744;2022-12-18T12:35:09;-2.5;70.6
67893;DHT22;54688;52.376;16.744;2022-12-18T12:38:22;-2.5;70.9
67893;DHT22;54688;52.376;16.744;2022-12-18T12:41:30;-2.3;71.6
67893;DHT22;54688;52.376;16.744;2022-12-18T12:44:35;-2.3;70.8
67893;DHT22;54688;52.376;16.744;2022-12-18T12:47:44;-2.3;70.4
67893;DHT22;54688;52.376;16.744;2022-12-18T12:50:49;-2.3;70.9
67893;DHT22;54688;52.376;16.744;2022-12-18T12:53:52;-2.3;71.6
67893;DHT22;54688;52.376;16.744;2022-12-18T12:59:57;-2.2;71.3
67893;DHT22;54688;52.376;16.744;2022-12-18T13:03:08;-2.2;71.5
67893;DHT22;54688;52.376;16.744;2022-12-18T13:06:16;-2.2;71.3
67893;DHT22;54688;52.376;16.744;2022-12-18T13:09:25;-2.2;71
67893;DHT22;54688;52.376;16.744;2022-12-18T13:12:32;-2.2;70.5
67893;DHT22;54688;52.376;16.744;2022-12-18T13:15:36;-2.2;69.9
67893;DHT22;54688;52.376;16.744;2022-12-18T13:21:41;-2.3;69.1
67893;DHT22;54688;52.376;16.744;2022-12-18T13:24:43;-2.4;69.9
67893;DHT22;54688;52.376;16.744;2022-12-18T13:27:53;-2.4;70.1
67893;DHT22;54688;52.376;16.744;2022-12-18T13:31:01;-2.4;70.2
67893;DHT22;54688;52.376;16.744;2022-12-18T13:34:12;-2.4;71.3
67893;DHT22;54688;52.376;16.744;2022-12-18T13:40:53;-2.3;70.6
67893;DHT22;54688;52.376;16.744;2022-12-18T13:43:57;-2.4;70.3
67893;DHT22;54688;52.376;16.744;2022-12-18T13:47:24;-2.4;70.2
67893;DHT22;54688;52.376;16.744;2022-12-18T13:50:28;-2.5;70.3
67893;DHT22;54688;52.376;16.744;2022-12-18T13:56:30;-2.6;70.1
67893;DHT22;54688;52.376;16.744;2022-12-18T13:59:35;-2.6;70
67893;DHT22;54688;52.376;16.744;2022-12-18T14:02:38;-2.6;70.1
67893;DHT22;54688;52.376;16.744;2022-12-18T14:05:40;-2.6;70.4
67893;DHT22;54688;52.376;16.744;2022-12-18T14:08:46;-2.7;70.7
67893;DHT22;54688;52.376;16.744;2022-12-18T14:11:49;-2.6;70.8
67893;DHT22;54688;52.376;16.744;2022-12-18T14:14:52;-2.6;70.9
67893;DHT22;54688;52.376;16.744;2022-12-18T14:17:55;-2.7;70
67893;DHT22;54688;52.376;16.744;2022-12-18T14:21:00;-2.7;70.2
67893;DHT22;54688;52.376;16.744;2022-12-18T14:27:12;-2.8;71.5
67893;DHT22;54688;52.376;16.744;2022-12-18T14:30:23;-2.9;70.8
67893;DHT22;54688;52.376;16.744;2022-12-18T14:33:29;-2.9;70.8
67893;DHT22;54688;52.376;16.744;2022-12-18T14:36:31;-3;70.8
67893;DHT22;54688;52.376;16.744;2022-12-18T14:39:33;-3;70.8
67893;DHT22;54688;52.376;16.744;2022-12-18T14:42:36;-3;70.9
67893;DHT22;54688;52.376;16.744;2022-12-18T14:45:39;-3.1;71.1
67893;DHT22;54688;52.376;16.744;2022-12-18T14:48:43;-3;71.5
67893;DHT22;54688;52.376;16.744;2022-12-18T14:51:49;-3.1;71
67893;DHT22;54688;52.376;16.744;2022-12-18T14:54:53;-3.1;71.1
67893;DHT22;54688;52.376;16.744;2022-12-18T14:57:55;-3.2;71.1
67893;DHT22;54688;52.376;16.744;2022-12-18T15:00:59;-3.2;71.1
67893;DHT22;54688;52.376;16.744;2022-12-18T15:04:01;-3.2;71.3
67893;DHT22;54688;52.376;16.744;2022-12-18T15:07:05;-3.3;71.8
67893;DHT22;54688;52.376;16.744;2022-12-18T15:10:12;-3.2;71.6
67893;DHT22;54688;52.376;16.744;2022-12-18T15:13:20;-3.2;71.7
67893;DHT22;54688;52.376;16.744;2022-12-18T15:16:24;-3.3;71.6
67893;DHT22;54688;52.376;16.744;2022-12-18T15:19:31;-3.3;71.6
67893;DHT22;54688;52.376;16.744;2022-12-18T15:22:38;-3.3;71.7
67893;DHT22;54688;52.376;16.744;2022-12-18T15:25:40;-3.3;72.1
67893;DHT22;54688;52.376;16.744;2022-12-18T15:28:44;-3.3;71.6
67893;DHT22;54688;52.376;16.744;2022-12-18T15:31:57;-3.4;71.5
67893;DHT22;54688;52.376;16.744;2022-12-18T15:35:02;-3.5;70.6
67893;DHT22;54688;52.376;16.744;2022-12-18T15:38:13;-3.5;71.6
67893;DHT22;54688;52.376;16.744;2022-12-18T15:41:16;-3.5;71.8
67893;DHT22;54688;52.376;16.744;2022-12-18T15:44:21;-3.5;72.8
67893;DHT22;54688;52.376;16.744;2022-12-18T15:47:24;-3.5;72
67893;DHT22;54688;52.376;16.744;2022-12-18T15:50:26;-3.6;72.2
67893;DHT22;54688;52.376;16.744;2022-12-18T15:53:29;-3.6;72.6
67893;DHT22;54688;52.376;16.744;2022-12-18T15:56:34;-3.6;72.4
67893;DHT22;54688;52.376;16.744;2022-12-18T15:59:36;-3.6;72.3
67893;DHT22;54688;52.376;16.744;2022-12-18T16:02:39;-3.6;72.1
67893;DHT22;54688;52.376;16.744;2022-12-18T16:05:42;-3.7;72.3
67893;DHT22;54688;52.376;16.744;2022-12-18T16:11:44;-3.7;72.1
67893;DHT22;54688;52.376;16.744;2022-12-18T16:20:45;-3.8;72.3
67893;DHT22;54688;52.376;16.744;2022-12-18T16:23:47;-3.8;72.6
67893;DHT22;54688;52.376;16.744;2022-12-18T16:26:49;-3.8;72.6
67893;DHT22;54688;52.376;16.744;2022-12-18T16:29:52;-3.8;72.7
67893;DHT22;54688;52.376;16.744;2022-12-18T16:32:54;-3.8;72.8
67893;DHT22;54688;52.376;16.744;2022-12-18T16:35:56;-3.8;72.8
67893;DHT22;54688;52.376;16.744;2022-12-18T16:38:59;-3.8;72.6
67893;DHT22;54688;52.376;16.744;2022-12-18T16:42:00;-3.9;72.4
67893;DHT22;54688;52.376;16.744;2022-12-18T16:45:04;-3.9;72.7
67893;DHT22;54688;52.376;16.744;2022-12-18T16:48:07;-3.9;72.5
67893;DHT22;54688;52.376;16.744;2022-12-18T16:51:10;-3.9;72.4
67893;DHT22;54688;52.376;16.744;2022-12-18T16:54:12;-3.9;73.2
67893;DHT22;54688;52.376;16.744;2022-12-18T16:57:15;-3.9;72.6
67893;DHT22;54688;52.376;16.744;2022-12-18T17:03:18;-3.9;73
67893;DHT22;54688;52.376;16.744;2022-12-18T17:06:20;-3.8;72.7
67893;DHT22;54688;52.376;16.744;2022-12-18T17:09:24;-3.9;72.6
67893;DHT22;54688;52.376;16.744;2022-12-18T17:12:26;-3.9;72.6
67893;DHT22;54688;52.376;16.744;2022-12-18T17:15:28;-3.9;72.7
67893;DHT22;54688;52.376;16.744;2022-12-18T17:18:30;-3.9;72.6
67893;DHT22;54688;52.376;16.744;2022-12-18T17:21:33;-3.9;72.7
67893;DHT22;54688;52.376;16.744;2022-12-18T17:24:35;-4;72.3
67893;DHT22;54688;52.376;16.744;2022-12-18T17:27:37;-4;72.1
67893;DHT22;54688;52.376;16.744;2022-12-18T17:30:40;-4.1;72.7
67893;DHT22;54688;52.376;16.744;2022-12-18T17:33:42;-4.1;72.5
67893;DHT22;54688;52.376;16.744;2022-12-18T17:36:44;-4.1;71.6
67893;DHT22;54688;52.376;16.744;2022-12-18T17:39:47;-4.1;72.9
67893;DHT22;54688;52.376;16.744;2022-12-18T17:42:51;-4.2;72.6
67893;DHT22;54688;52.376;16.744;2022-12-18T17:45:53;-4.2;73.2
67893;DHT22;54688;52.376;16.744;2022-12-18T17:51:54;-4.2;72.8
67893;DHT22;54688;52.376;16.744;2022-12-18T17:54:57;-4.3;72.7
67893;DHT22;54688;52.376;16.744;2022-12-18T17:57:59;-4.3;72.1
67893;DHT22;54688;52.376;16.744;2022-12-18T18:01:02;-4.4;72.8
67893;DHT22;54688;52.376;16.744;2022-12-18T18:04:06;-4.4;72.8
67893;DHT22;54688;52.376;16.744;2022-12-18T18:07:08;-4.4;72.9
67893;DHT22;54688;52.376;16.744;2022-12-18T18:10:10;-4.4;73
67893;DHT22;54688;52.376;16.744;2022-12-18T18:13:15;-4.4;73.1
67893;DHT22;54688;52.376;16.744;2022-12-18T18:16:20;-4.4;73
67893;DHT22;54688;52.376;16.744;2022-12-18T18:19:23;-4.5;72.8
67893;DHT22;54688;52.376;16.744;2022-12-18T18:22:25;-4.6;72.8
67893;DHT22;54688;52.376;16.744;2022-12-18T18:25:27;-4.5;73
67893;DHT22;54688;52.376;16.744;2022-12-18T18:28:29;-4.5;72.8
67893;DHT22;54688;52.376;16.744;2022-12-18T18:31:32;-4.5;73.3
67893;DHT22;54688;52.376;16.744;2022-12-18T18:34:35;-4.6;73.7
67893;DHT22;54688;52.376;16.744;2022-12-18T18:37:38;-4.6;73.2
67893;DHT22;54688;52.376;16.744;2022-12-18T18:40:40;-4.6;73.3
67893;DHT22;54688;52.376;16.744;2022-12-18T18:43:43;-4.7;73.4
67893;DHT22;54688;52.376;16.744;2022-12-18T18:46:45;-4.7;73.3
67893;DHT22;54688;52.376;16.744;2022-12-18T18:49:48;-4.7;73.8
67893;DHT22;54688;52.376;16.744;2022-12-18T18:52:51;-4.7;74.1
67893;DHT22;54688;52.376;16.744;2022-12-18T18:55:53;-4.7;73.6
67893;DHT22;54688;52.376;16.744;2022-12-18T18:58:56;-4.7;73.5
67893;DHT22;54688;52.376;16.744;2022-12-18T19:01:58;-4.7;73.2
67893;DHT22;54688;52.376;16.744;2022-12-18T19:05:00;-4.7;73.3
67893;DHT22;54688;52.376;16.744;2022-12-18T19:11:02;-4.8;73.6
67893;DHT22;54688;52.376;16.744;2022-12-18T19:14:06;-4.7;73.5
67893;DHT22;54688;52.376;16.744;2022-12-18T19:17:10;-4.7;72.9
67893;DHT22;54688;52.376;16.744;2022-12-18T19:20:13;-4.7;73.3
67893;DHT22;54688;52.376;16.744;2022-12-18T19:23:16;-4.7;73.2
67893;DHT22;54688;52.376;16.744;2022-12-18T19:26:18;-4.7;72.3
67893;DHT22;54688;52.376;16.744;2022-12-18T19:29:21;-4.6;72.6
67893;DHT22;54688;52.376;16.744;2022-12-18T19:32:23;-4.7;73.1
67893;DHT22;54688;52.376;16.744;2022-12-18T19:35:27;-4.6;72.4
67893;DHT22;54688;52.376;16.744;2022-12-18T19:38:31;-4.7;73.9
67893;DHT22;54688;52.376;16.744;2022-12-18T19:41:33;-4.7;72.2
67893;DHT22;54688;52.376;16.744;2022-12-18T19:44:36;-4.7;73
67893;DHT22;54688;52.376;16.744;2022-12-18T19:47:39;-4.7;73.5
67893;DHT22;54688;52.376;16.744;2022-12-18T19:50:41;-4.7;73.1
67893;DHT22;54688;52.376;16.744;2022-12-18T19:53:43;-4.8;73.2
67893;DHT22;54688;52.376;16.744;2022-12-18T19:56:47;-4.8;73
67893;DHT22;54688;52.376;16.744;2022-12-18T19:59:49;-4.8;72.9
67893;DHT22;54688;52.376;16.744;2022-12-18T20:02:52;-4.8;72.9
67893;DHT22;54688;52.376;16.744;2022-12-18T20:05:55;-4.9;72.8
67893;DHT22;54688;52.376;16.744;2022-12-18T20:08:58;-4.9;72.8
67893;DHT22;54688;52.376;16.744;2022-12-18T20:12:02;-5;72.9
67893;DHT22;54688;52.376;16.744;2022-12-18T20:15:06;-5;73.4
67893;DHT22;54688;52.376;16.744;2022-12-18T20:18:09;-5.1;73
67893;DHT22;54688;52.376;16.744;2022-12-18T20:21:11;-5.2;72.5
67893;DHT22;54688;52.376;16.744;2022-12-18T20:24:13;-5.3;73.3
67893;DHT22;54688;52.376;16.744;2022-12-18T20:27:15;-5.4;73.4
67893;DHT22;54688;52.376;16.744;2022-12-18T20:30:18;-5.4;73.6
67893;DHT22;54688;52.376;16.744;2022-12-18T20:33:21;-5.4;73.7
67893;DHT22;54688;52.376;16.744;2022-12-18T20:36:23;-5.5;73
67893;DHT22;54688;52.376;16.744;2022-12-18T20:39:26;-5.5;74.1
67893;DHT22;54688;52.376;16.744;2022-12-18T20:42:28;-5.6;74.2
67893;DHT22;54688;52.376;16.744;2022-12-18T20:45:31;-5.6;73.8
67893;DHT22;54688;52.376;16.744;2022-12-18T20:48:33;-5.6;74.5
67893;DHT22;54688;52.376;16.744;2022-12-18T20:51:36;-5.6;73.9
67893;DHT22;54688;52.376;16.744;2022-12-18T20:54:39;-5.7;74.9
67893;DHT22;54688;52.376;16.744;2022-12-18T20:57:41;-5.7;74.7
67893;DHT22;54688;52.376;16.744;2022-12-18T21:00:44;-5.7;74.8
67893;DHT22;54688;52.376;16.744;2022-12-18T21:03:46;-5.8;74.8
67893;DHT22;54688;52.376;16.744;2022-12-18T21:06:48;-5.8;74.8
67893;DHT22;54688;52.376;16.744;2022-12-18T21:09:52;-5.8;74.9